CheckWX is a tool to help pilots better visualize weather data.  It is not intended as a substitute for an official pre-flight weather briefing.

20:53:18 UTC

VTPO METAR
Sukhothai Airport
Thailand
Current

11 hours ago

VTPO 221000Z 20004KT CAVOK 31/17 Q1010 NOSIG
Observed
Nov-22 @ 10:00 UTC
Wind
  • 200° at 4 KTS
Visibility
10,000+ meters
Flight Rules
VFR
Cloud Levels
  • Clear skies
Temperature
31°C / 88°F
Dewpoint
17°C / 63°F
Heat Index
32°C / 89°F
Humidity
43%
Altimeter
29.82" Hg
Pressure
1009.92 hPa
Previous

12 hours ago

VTPO 220900Z 23004KT 9999 FEW025 32/18 Q1010 NOSIG
Observed
Nov-22 @ 09:00 UTC
Wind
  • 230° at 4 KTS
Visibility
10,000+ meters
Flight Rules
VFR
Cloud Levels
  • Few at 2,500' AGL
Temperature
32°C / 90°F
Dewpoint
18°C / 64°F
Heat Index
33°C / 92°F
Humidity
43%
Altimeter
29.82" Hg
Pressure
1009.92 hPa
Previous

13 hours ago

VTPO 220800Z VRB02KT 9999 FEW025 32/18 Q1011 NOSIG
Observed
Nov-22 @ 08:00 UTC
Wind
  • Variable at 2 KTS
Visibility
10,000+ meters
Flight Rules
VFR
Cloud Levels
  • Few at 2,500' AGL
Temperature
32°C / 90°F
Dewpoint
18°C / 64°F
Heat Index
33°C / 92°F
Humidity
43%
Altimeter
29.85" Hg
Pressure
1010.92 hPa